Time;durP1;ratioP1;P1;durP2;ratioP2;P2;SDS_P1;SDS_P2;PMS_P1;PMS_P2;Temp;Humidity;BMP_temperature;BMP_pressure;BME280_temperature;BME280_humidity;BME280_pressure;Samples;Min_cycle;Max_cycle;Signal;HPM_P1;HPM_P2
2023/04/12 00:00:53;;;;;;;8.43;2.20;;;7.80;99.90;;;;;;4997827;28;20046;-85
2023/04/12 00:03:19;;;;;;;9.60;2.33;;;7.80;99.90;;;;;;4998737;28;20041;-85
2023/04/12 00:05:45;;;;;;;8.15;2.20;;;7.80;99.90;;;;;;5014554;28;20042;-85
2023/04/12 00:08:13;;;;;;;8.65;2.30;;;7.90;99.90;;;;;;5014224;28;20526;-85
2023/04/12 00:10:39;;;;;;;8.65;2.00;;;7.90;99.90;;;;;;4997960;28;20071;-84
2023/04/12 00:13:05;;;;;;;10.00;2.10;;;7.90;99.90;;;;;;4998419;28;20042;-84
2023/04/12 00:15:31;;;;;;;6.95;1.42;;;8.00;99.90;;;;;;4998104;28;20494;-84
2023/04/12 00:17:57;;;;;;;7.07;2.10;;;8.10;99.90;;;;;;5013768;28;20088;-84
2023/04/12 00:20:23;;;;;;;9.05;2.40;;;8.20;99.90;;;;;;5015018;28;20053;-84
2023/04/12 00:22:49;;;;;;;8.43;2.00;;;8.10;99.90;;;;;;4995635;28;20103;-84
2023/04/12 00:25:15;;;;;;;10.52;2.47;;;8.30;99.90;;;;;;5034387;28;20444;-84
2023/04/12 00:27:40;;;;;;;9.98;2.35;;;8.20;99.90;;;;;;5018054;28;20537;-84
2023/04/12 00:30:07;;;;;;;10.45;2.20;;;8.30;99.90;;;;;;5017838;28;20386;-83
2023/04/12 00:32:33;;;;;;;8.65;2.50;;;8.40;99.90;;;;;;5033896;28;20048;-84
2023/04/12 00:34:58;;;;;;;9.15;2.17;;;8.40;99.90;;;;;;5033487;28;20049;-84
2023/04/12 00:37:24;;;;;;;8.57;2.55;;;8.50;99.90;;;;;;5000999;28;20045;-84
2023/04/12 00:39:50;;;;;;;7.70;2.30;;;8.40;99.90;;;;;;5018297;28;20044;-85
2023/04/12 00:42:16;;;;;;;9.38;2.63;;;8.50;99.90;;;;;;5001829;28;20088;-84
2023/04/12 00:44:42;;;;;;;8.32;2.30;;;8.50;99.90;;;;;;5004151;28;20508;-85
2023/04/12 00:47:08;;;;;;;10.43;2.80;;;8.60;99.90;;;;;;5006443;28;20052;-84
2023/04/12 00:49:36;;;;;;;8.93;2.53;;;8.60;99.90;;;;;;5035246;28;20041;-84
2023/04/12 00:52:07;;;;;;;11.38;2.90;;;7.90;99.90;;;;;;5001195;28;20061;-85
2023/04/12 00:54:33;;;;;;;8.35;2.53;;;8.60;99.90;;;;;;5035028;28;20046;-85
2023/04/12 00:57:00;;;;;;;9.80;2.70;;;8.60;99.90;;;;;;5034486;28;20084;-85
2023/04/12 00:59:26;;;;;;;11.73;2.28;;;8.60;99.90;;;;;;5001027;28;20052;-84
2023/04/12 01:01:55;;;;;;;11.32;2.65;;;8.60;99.90;;;;;;5034925;28;20449;-85
2023/04/12 01:04:21;;;;;;;6.78;1.65;;;8.70;99.90;;;;;;5034387;28;20049;-84
2023/04/12 01:06:50;;;;;;;13.25;3.15;;;7.90;99.90;;;;;;5050507;28;20056;-84
2023/04/12 01:09:40;;;;;;;8.32;2.53;;;8.70;99.90;;;;;;5049826;28;20049;-85
2023/04/12 01:12:31;;;;;;;10.63;2.97;;;8.70;99.90;;;;;;5051998;28;20050;-85
2023/04/12 01:15:08;;;;;;;7.43;2.05;;;8.90;99.90;;;;;;5021904;28;20045;-84
2023/04/12 01:17:56;;;;;;;10.07;2.88;;;8.80;99.90;;;;;;5033996;28;20049;-84
2023/04/12 01:20:27;;;;;;;12.15;3.08;;;8.80;99.90;;;;;;5019111;28;20049;-84
2023/04/12 01:23:35;;;;;;;11.98;3.10;;;8.80;99.90;;;;;;5035250;28;20053;-84
2023/04/12 01:26:22;;;;;;;8.95;2.85;;;8.80;99.90;;;;;;5013069;28;20045;-87
2023/04/12 01:28:53;;;;;;;8.57;3.08;;;8.90;99.90;;;;;;5016370;28;20558;-86
2023/04/12 01:31:20;;;;;;;13.23;3.28;;;8.90;99.90;;;;;;5032750;28;20060;-84
2023/04/12 01:33:47;;;;;;;11.48;2.80;;;8.90;99.90;;;;;;5016235;28;20152;-86
2023/04/12 01:36:16;;;;;;;12.45;3.00;;;8.90;99.90;;;;;;5016276;28;20076;-86
2023/04/12 01:38:43;;;;;;;12.82;3.20;;;8.90;99.90;;;;;;5032560;28;20045;-85
2023/04/12 01:41:09;;;;;;;11.02;2.97;;;8.90;99.90;;;;;;5000179;28;20132;-86
2023/04/12 01:43:46;;;;;;;9.77;3.03;;;8.80;99.90;;;;;;5032899;28;20045;-87
2023/04/12 01:46:15;;;;;;;10.63;3.22;;;8.80;99.90;;;;;;4999899;28;20096;-86
2023/04/12 01:48:48;;;;;;;10.05;3.30;;;8.80;99.90;;;;;;5032648;28;20099;-86
2023/04/12 01:51:24;;;;;;;10.52;3.10;;;8.80;99.90;;;;;;5032526;28;20041;-86
2023/04/12 01:53:58;;;;;;;9.30;2.97;;;8.80;99.90;;;;;;5016035;28;20103;-86
2023/04/12 01:56:28;;;;;;;11.57;3.67;;;8.70;99.90;;;;;;5032262;28;20106;-86
2023/04/12 01:58:56;;;;;;;10.50;3.10;;;8.70;99.90;;;;;;5032410;28;20056;-87
2023/04/12 02:01:23;;;;;;;10.15;2.92;;;8.70;99.90;;;;;;5032838;28;20068;-86
2023/04/12 02:03:50;;;;;;;9.77;3.20;;;8.70;99.90;;;;;;5032987;28;20053;-87
2023/04/12 02:06:19;;;;;;;11.23;3.35;;;8.70;99.90;;;;;;5016538;28;20045;-86
2023/04/12 02:08:46;;;;;;;10.82;3.28;;;8.70;99.90;;;;;;5031955;28;20155;-88
2023/04/12 02:11:13;;;;;;;11.60;3.20;;;8.70;99.90;;;;;;4983686;28;20418;-87
2023/04/12 02:13:39;;;;;;;10.05;3.60;;;8.70;99.90;;;;;;5015504;28;20100;-87
2023/04/12 02:16:09;;;;;;;9.98;3.33;;;8.70;99.90;;;;;;5032280;28;20041;-87
2023/04/12 02:18:35;;;;;;;12.05;3.60;;;8.70;99.90;;;;;;5016332;28;20103;-86
2023/04/12 02:21:01;;;;;;;11.82;3.67;;;8.70;99.90;;;;;;4999495;28;20054;-87
2023/04/12 02:23:27;;;;;;;10.50;3.35;;;8.60;99.90;;;;;;4999151;28;20045;-86
2023/04/12 02:25:53;;;;;;;13.02;3.55;;;8.70;99.90;;;;;;5048869;28;20366;-86
2023/04/12 02:28:18;;;;;;;13.60;3.75;;;8.70;99.90;;;;;;5032137;28;20077;-86
2023/04/12 02:30:44;;;;;;;11.20;3.10;;;8.20;99.90;;;;;;5015735;28;20050;-86
2023/04/12 02:36:51;;;;;;;11.82;3.22;;;8.70;99.90;;;;;;5033189;28;20056;-86
2023/04/12 02:39:20;;;;;;;11.60;3.70;;;8.70;99.90;;;;;;5032027;28;20041;-86
2023/04/12 02:41:46;;;;;;;9.85;3.28;;;8.70;99.90;;;;;;4999974;28;20046;-85
2023/04/12 02:44:12;;;;;;;9.57;3.00;;;8.60;99.90;;;;;;5015994;28;20056;-87
2023/04/12 02:46:38;;;;;;;7.22;2.28;;;8.60;99.90;;;;;;5000165;28;20045;-87
2023/04/12 02:49:04;;;;;;;9.40;2.53;;;8.70;99.90;;;;;;5049211;28;20052;-87
2023/04/12 02:51:30;;;;;;;8.35;2.22;;;8.70;99.90;;;;;;5015460;28;20058;-85
2023/04/12 02:53:56;;;;;;;9.40;2.38;;;8.70;99.90;;;;;;5015293;28;20514;-86
2023/04/12 02:56:23;;;;;;;9.00;2.40;;;8.80;99.90;;;;;;5015581;28;20140;-86
2023/04/12 02:58:49;;;;;;;8.63;2.40;;;8.90;99.90;;;;;;5033759;28;20504;-86
2023/04/12 03:01:15;;;;;;;8.52;2.45;;;8.90;99.90;;;;;;5036746;28;20041;-85
2023/04/12 03:03:41;;;;;;;10.15;2.35;;;9.00;99.90;;;;;;5035190;28;20054;-86
2023/04/12 03:06:10;;;;;;;8.95;2.40;;;8.90;99.90;;;;;;4987946;28;20153;-83
2023/04/12 03:08:36;;;;;;;7.82;2.25;;;8.90;99.90;;;;;;5018459;28;20431;-84
2023/04/12 03:11:02;;;;;;;9.32;2.40;;;8.90;99.90;;;;;;5035414;28;20061;-82
2023/04/12 03:13:28;;;;;;;7.63;2.25;;;8.90;99.90;;;;;;5003237;28;20056;-83
2023/04/12 03:15:57;;;;;;;7.03;1.85;;;8.90;99.90;;;;;;5018981;28;20037;-83
2023/04/12 03:18:23;;;;;;;8.07;2.47;;;8.90;99.90;;;;;;5035002;28;20448;-83
2023/04/12 03:20:49;;;;;;;8.15;2.53;;;8.90;99.90;;;;;;5035041;28;20054;-83
2023/04/12 03:23:15;;;;;;;8.25;2.38;;;8.10;99.90;;;;;;5015191;28;20045;-85
2023/04/12 03:25:41;;;;;;;8.77;2.30;;;9.00;99.90;;;;;;4999033;28;20049;-83
2023/04/12 03:28:08;;;;;;;7.07;2.00;;;8.90;99.90;;;;;;5031892;28;20494;-84
2023/04/12 03:30:33;;;;;;;4.15;1.33;;;9.00;99.90;;;;;;4982960;28;20061;-84
2023/04/12 03:33:00;;;;;;;7.43;2.15;;;9.00;99.90;;;;;;4982657;28;20041;-83
2023/04/12 03:35:25;;;;;;;7.35;2.30;;;9.00;99.90;;;;;;5015162;28;20056;-84
2023/04/12 03:37:51;;;;;;;8.55;2.38;;;8.90;99.90;;;;;;4999163;28;20045;-84
2023/04/12 03:40:17;;;;;;;8.43;2.35;;;8.90;99.90;;;;;;5014621;28;20052;-83
2023/04/12 03:42:43;;;;;;;10.35;2.13;;;8.90;99.90;;;;;;5014300;28;20061;-84
2023/04/12 03:45:09;;;;;;;8.23;2.45;;;8.20;99.90;;;;;;4998482;28;20045;-83
2023/04/12 03:47:35;;;;;;;7.63;2.17;;;8.90;99.90;;;;;;5014872;28;20045;-84
2023/04/12 03:50:05;;;;;;;6.85;2.05;;;8.90;99.90;;;;;;5014934;28;20051;-85
2023/04/12 03:52:32;;;;;;;8.27;2.50;;;8.90;99.90;;;;;;5007834;28;20046;-83
2023/04/12 03:54:57;;;;;;;8.00;2.40;;;8.90;99.90;;;;;;4998389;28;20111;-83
2023/04/12 03:57:23;;;;;;;11.75;2.70;;;8.50;99.90;;;;;;4998713;28;20049;-84
2023/04/12 03:59:50;;;;;;;9.75;2.60;;;8.90;99.90;;;;;;4997834;28;20049;-85
2023/04/12 04:02:16;;;;;;;7.57;2.20;;;9.00;99.90;;;;;;5015166;28;20054;-83
2023/04/12 04:04:43;;;;;;;8.55;2.05;;;9.00;99.90;;;;;;5014561;28;20107;-83
2023/04/12 04:07:09;;;;;;;6.15;2.28;;;8.90;99.90;;;;;;4981905;28;20050;-84
2023/04/12 04:09:41;;;;;;;6.85;2.30;;;8.90;99.90;;;;;;4998821;28;20053;-85
2023/04/12 04:12:07;;;;;;;7.25;2.28;;;8.90;99.90;;;;;;4997771;28;20429;-84
2023/04/12 04:14:35;;;;;;;5.85;1.98;;;8.90;99.90;;;;;;4998139;28;20120;-84
2023/04/12 04:17:01;;;;;;;6.22;2.00;;;8.90;99.90;;;;;;4998430;28;20056;-86
2023/04/12 04:19:27;;;;;;;8.27;2.25;;;8.90;99.90;;;;;;4997982;28;20125;-86
2023/04/12 04:21:55;;;;;;;6.63;2.00;;;8.90;99.90;;;;;;4998055;28;20056;-85
2023/04/12 04:24:21;;;;;;;7.97;2.08;;;8.80;99.90;;;;;;5013982;28;20081;-86
2023/04/12 04:26:49;;;;;;;6.00;1.92;;;8.90;99.90;;;;;;5014233;28;20050;-86
2023/04/12 04:29:14;;;;;;;4.22;1.58;;;8.90;99.90;;;;;;4998343;28;20049;-86
2023/04/12 04:31:44;;;;;;;5.53;1.55;;;8.00;99.90;;;;;;5014458;28;20537;-86
2023/04/12 04:34:13;;;;;;;6.75;1.92;;;8.90;99.90;;;;;;4999040;28;20061;-85
2023/04/12 04:36:40;;;;;;;8.25;2.45;;;7.90;99.90;;;;;;4998479;28;20141;-84
2023/04/12 04:39:06;;;;;;;6.50;2.13;;;8.80;99.90;;;;;;4997552;28;20038;-85
2023/04/12 04:41:40;;;;;;;6.38;2.03;;;8.80;99.90;;;;;;5014147;28;20050;-84
2023/04/12 04:44:09;;;;;;;7.20;2.10;;;8.80;99.90;;;;;;4998447;28;20061;-85
2023/04/12 04:46:38;;;;;;;5.28;1.60;;;7.80;99.90;;;;;;5013878;28;20482;-85
2023/04/12 04:49:05;;;;;;;6.45;1.90;;;8.70;99.90;;;;;;4997636;28;20046;-85
2023/04/12 04:51:35;;;;;;;8.88;2.30;;;8.00;99.90;;;;;;5000397;28;20389;-85
2023/04/12 04:54:04;;;;;;;7.25;2.10;;;8.70;99.90;;;;;;5001346;28;20046;-84
2023/04/12 04:56:31;;;;;;;2.70;0.90;;;8.60;99.90;;;;;;5033371;28;20509;-85
2023/04/12 04:58:57;;;;;;;3.58;1.25;;;8.60;99.90;;;;;;5017000;28;20052;-84
2023/04/12 05:01:26;;;;;;;5.90;1.70;;;8.60;99.90;;;;;;5018397;28;20038;-85
2023/04/12 05:03:54;;;;;;;4.38;1.40;;;8.70;99.90;;;;;;5034437;28;20061;-86
2023/04/12 05:06:20;;;;;;;6.38;1.77;;;8.60;99.90;;;;;;5033916;28;20045;-85
2023/04/12 05:08:46;;;;;;;6.25;2.10;;;8.60;99.90;;;;;;5016416;28;20120;-84
2023/04/12 05:11:14;;;;;;;7.43;1.95;;;8.50;99.90;;;;;;5034418;28;20053;-85
2023/04/12 05:13:40;;;;;;;6.75;1.70;;;8.60;99.90;;;;;;5000111;28;20049;-86
2023/04/12 05:16:07;;;;;;;7.32;1.85;;;8.60;99.90;;;;;;5000174;28;20096;-84
2023/04/12 05:18:33;;;;;;;7.43;2.00;;;8.50;99.90;;;;;;5016440;28;20049;-83
2023/04/12 05:21:05;;;;;;;5.88;2.00;;;8.50;99.90;;;;;;4983771;28;20056;-83
2023/04/12 05:23:36;;;;;;;5.97;1.85;;;8.50;99.90;;;;;;5032744;28;20093;-82
2023/04/12 05:26:03;;;;;;;8.77;2.20;;;8.40;99.90;;;;;;5016244;28;20092;-82
2023/04/12 05:28:29;;;;;;;6.15;1.80;;;8.50;99.90;;;;;;5016417;28;20049;-82
2023/04/12 05:30:54;;;;;;;8.57;2.00;;;8.50;99.90;;;;;;5016073;28;20127;-82
2023/04/12 05:33:20;;;;;;;5.80;2.25;;;8.40;99.90;;;;;;5032656;28;20118;-82
2023/04/12 05:35:46;;;;;;;7.05;2.17;;;8.40;99.90;;;;;;5032646;28;20425;-81
2023/04/12 05:38:11;;;;;;;7.05;2.00;;;8.40;99.90;;;;;;5032655;28;20072;-81
2023/04/12 05:40:37;;;;;;;9.85;2.50;;;8.30;99.90;;;;;;5032110;28;20064;-81
2023/04/12 05:43:03;;;;;;;5.57;1.80;;;8.40;99.90;;;;;;5032518;28;20049;-81
2023/04/12 05:45:29;;;;;;;3.90;1.27;;;8.30;99.90;;;;;;5016219;28;20501;-80
2023/04/12 05:47:54;;;;;;;6.15;1.80;;;8.40;99.90;;;;;;5016078;28;20041;-80
2023/04/12 05:50:21;;;;;;;8.70;2.28;;;8.30;99.90;;;;;;5015478;28;20070;-80
2023/04/12 05:52:49;;;;;;;7.75;2.17;;;8.30;99.90;;;;;;5032471;28;20084;-80
2023/04/12 05:55:17;;;;;;;6.18;2.05;;;8.40;99.90;;;;;;5016502;28;20053;-79
2023/04/12 05:57:44;;;;;;;8.93;2.60;;;8.30;99.90;;;;;;5015362;28;20049;-79
2023/04/12 06:00:13;;;;;;;7.07;2.50;;;8.30;99.90;;;;;;5032142;28;20492;-79
2023/04/12 06:02:39;;;;;;;6.07;2.08;;;8.20;99.90;;;;;;5032433;28;20401;-79
2023/04/12 06:05:05;;;;;;;6.43;2.20;;;8.30;99.90;;;;;;5015806;28;20060;-79
2023/04/12 06:07:31;;;;;;;5.25;1.63;;;8.20;99.90;;;;;;5032140;28;20060;-80
2023/04/12 06:09:57;;;;;;;8.60;2.55;;;8.30;99.90;;;;;;5015660;28;20452;-80
2023/04/12 06:12:23;;;;;;;5.18;1.95;;;8.20;99.90;;;;;;5015743;28;20465;-79
2023/04/12 06:14:51;;;;;;;6.25;2.13;;;8.20;99.90;;;;;;4999983;28;20053;-79
2023/04/12 06:17:17;;;;;;;7.45;2.40;;;8.20;99.90;;;;;;5032276;28;20041;-79
2023/04/12 06:19:43;;;;;;;7.80;2.05;;;8.20;99.90;;;;;;5031958;28;20052;-79
2023/04/12 06:22:09;;;;;;;5.88;1.70;;;8.20;99.90;;;;;;5032091;28;20050;-78
2023/04/12 06:24:34;;;;;;;6.38;1.90;;;8.20;99.90;;;;;;5015761;28;20061;-78
2023/04/12 06:27:00;;;;;;;3.83;1.52;;;8.30;99.90;;;;;;5032257;28;20046;-79
2023/04/12 06:29:26;;;;;;;4.55;1.40;;;8.20;99.90;;;;;;5032151;28;20045;-78
2023/04/12 06:31:52;;;;;;;8.27;2.58;;;8.20;99.90;;;;;;5015653;28;20099;-78
2023/04/12 06:34:18;;;;;;;6.18;2.08;;;8.20;99.90;;;;;;5033997;28;20147;-78
2023/04/12 06:36:46;;;;;;;6.50;1.73;;;8.20;99.90;;;;;;5035809;28;20048;-78
2023/04/12 06:39:15;;;;;;;6.90;2.08;;;8.20;99.90;;;;;;5019349;28;20136;-78
2023/04/12 06:41:42;;;;;;;6.68;2.50;;;8.20;99.90;;;;;;5035929;28;20398;-78
2023/04/12 06:44:09;;;;;;;5.55;1.70;;;8.10;99.90;;;;;;5035841;28;20084;-78
2023/04/12 06:46:34;;;;;;;5.82;2.03;;;8.20;99.90;;;;;;5035512;28;20096;-78
2023/04/12 06:49:00;;;;;;;8.02;2.58;;;8.20;99.90;;;;;;5035480;28;20062;-77
2023/04/12 06:51:27;;;;;;;4.85;2.13;;;8.20;99.90;;;;;;5018996;28;20050;-77
2023/04/12 06:53:53;;;;;;;6.28;2.40;;;8.20;99.90;;;;;;5019250;28;20075;-77
2023/04/12 06:56:18;;;;;;;7.15;2.22;;;8.10;99.90;;;;;;5019166;28;20049;-77
2023/04/12 06:58:44;;;;;;;6.22;2.40;;;8.20;99.90;;;;;;5018490;28;20096;-77
2023/04/12 07:01:12;;;;;;;9.63;2.40;;;8.20;99.90;;;;;;5035247;28;20053;-77
2023/04/12 07:03:38;;;;;;;7.63;3.08;;;8.20;99.90;;;;;;5035622;28;20493;-77
2023/04/12 07:06:04;;;;;;;9.80;3.03;;;8.10;99.90;;;;;;5018955;28;20083;-78
2023/04/12 07:08:31;;;;;;;8.57;2.60;;;8.10;99.90;;;;;;5034698;28;20057;-78
2023/04/12 07:10:57;;;;;;;9.15;3.25;;;8.20;99.90;;;;;;5035328;28;20065;-78
2023/04/12 07:13:23;;;;;;;6.03;1.88;;;8.20;99.90;;;;;;5035017;28;20045;-77
2023/04/12 07:15:53;;;;;;;9.00;3.08;;;8.20;99.90;;;;;;5034978;28;20431;-77
2023/04/12 07:18:22;;;;;;;9.45;3.03;;;8.20;99.90;;;;;;5034966;28;20060;-78
2023/04/12 07:20:49;;;;;;;8.80;2.92;;;8.20;99.90;;;;;;5035173;28;20166;-77
2023/04/12 07:23:15;;;;;;;7.80;3.25;;;8.20;99.90;;;;;;5034844;28;20057;-78
2023/04/12 07:25:41;;;;;;;8.52;3.20;;;8.20;99.90;;;;;;5035011;28;20409;-77
2023/04/12 07:28:07;;;;;;;9.10;3.38;;;8.10;99.90;;;;;;5035077;28;20057;-77
2023/04/12 07:30:33;;;;;;;6.72;2.47;;;8.10;99.90;;;;;;5034468;28;20053;-78
2023/04/12 07:33:02;;;;;;;7.82;3.55;;;8.20;99.90;;;;;;5034870;28;20107;-78
2023/04/12 07:35:27;;;;;;;7.80;3.60;;;8.20;99.90;;;;;;5002418;28;20059;-78
2023/04/12 07:37:53;;;;;;;9.35;3.50;;;8.10;99.90;;;;;;5034732;28;20132;-78
2023/04/12 07:40:19;;;;;;;8.82;4.13;;;8.10;99.90;;;;;;5034452;28;20141;-78
2023/04/12 07:42:45;;;;;;;8.05;3.60;;;8.10;99.90;;;;;;5018311;28;20048;-78
2023/04/12 07:45:11;;;;;;;9.25;3.35;;;8.10;99.90;;;;;;5017877;28;20050;-78
2023/04/12 07:47:36;;;;;;;9.80;3.30;;;8.10;99.90;;;;;;5034553;28;20042;-77
2023/04/12 07:50:03;;;;;;;7.95;2.90;;;8.20;99.90;;;;;;5035539;28;20050;-77
2023/04/12 07:52:28;;;;;;;6.32;3.08;;;8.20;99.90;;;;;;5034523;28;20049;-77
2023/04/12 07:54:54;;;;;;;8.35;3.22;;;8.30;99.90;;;;;;5034491;28;20119;-77
2023/04/12 07:57:20;;;;;;;7.65;3.80;;;8.20;99.90;;;;;;5034407;28;20425;-78
2023/04/12 07:59:46;;;;;;;8.95;4.20;;;8.20;99.90;;;;;;5033733;28;20132;-78
2023/04/12 08:02:12;;;;;;;9.45;3.88;;;8.20;99.90;;;;;;5018005;28;20053;-78
2023/04/12 08:04:37;;;;;;;9.65;3.97;;;8.20;99.90;;;;;;5017852;28;20045;-78
2023/04/12 08:07:03;;;;;;;9.20;3.35;;;8.20;99.90;;;;;;5017621;28;20508;-78
2023/04/12 08:09:29;;;;;;;8.43;4.20;;;8.20;99.90;;;;;;5034247;28;20049;-78
2023/04/12 08:11:57;;;;;;;9.38;3.97;;;8.20;99.90;;;;;;5017406;28;20338;-78
2023/04/12 08:14:22;;;;;;;7.97;3.70;;;8.20;99.90;;;;;;5033836;28;20417;-78
2023/04/12 08:16:48;;;;;;;8.00;3.50;;;8.20;99.90;;;;;;5034092;28;20053;-77
2023/04/12 08:19:14;;;;;;;6.28;2.97;;;8.30;99.90;;;;;;5033854;28;20045;-78
2023/04/12 08:21:39;;;;;;;7.10;3.35;;;8.30;99.90;;;;;;5033857;28;20099;-78
2023/04/12 08:24:06;;;;;;;8.25;3.60;;;8.30;99.90;;;;;;5033966;28;20049;-78
2023/04/12 08:26:31;;;;;;;6.85;3.00;;;8.30;99.90;;;;;;5033934;28;20049;-78
2023/04/12 08:28:57;;;;;;;7.60;3.50;;;8.30;99.90;;;;;;5017424;28;20096;-78
2023/04/12 08:31:23;;;;;;;6.88;3.53;;;8.30;99.90;;;;;;5017314;28;20124;-78
2023/04/12 08:33:49;;;;;;;5.70;3.22;;;8.30;99.90;;;;;;5017254;28;20096;-78
2023/04/12 08:36:15;;;;;;;6.93;3.28;;;8.40;99.90;;;;;;5033683;28;20045;-78
2023/04/12 08:38:41;;;;;;;6.55;3.45;;;8.40;99.90;;;;;;5033530;28;20041;-78
2023/04/12 08:41:07;;;;;;;6.10;3.10;;;8.40;99.90;;;;;;5033323;28;20132;-79
2023/04/12 08:43:33;;;;;;;6.53;3.28;;;8.50;99.90;;;;;;5033445;28;20429;-79
2023/04/12 08:46:00;;;;;;;6.45;3.05;;;8.50;99.90;;;;;;5016791;28;20110;-79
2023/04/12 08:48:27;;;;;;;6.07;3.47;;;8.50;99.90;;;;;;5033506;28;20087;-79
2023/04/12 08:50:55;;;;;;;6.20;3.55;;;8.60;99.90;;;;;;5033139;28;20057;-79
2023/04/12 08:53:21;;;;;;;6.65;4.30;;;8.70;99.90;;;;;;5032970;28;20064;-79
2023/04/12 08:55:47;;;;;;;6.72;4.13;;;8.70;99.90;;;;;;5000230;28;20256;-79
2023/04/12 08:58:14;;;;;;;6.97;4.30;;;8.80;99.90;;;;;;5032700;28;20142;-79
2023/04/12 09:00:41;;;;;;;7.50;4.68;;;8.80;99.90;;;;;;5033150;28;20053;-79
2023/04/12 09:03:09;;;;;;;6.20;4.50;;;8.80;99.90;;;;;;5016461;28;20045;-79
2023/04/12 09:05:35;;;;;;;7.07;4.40;;;8.90;99.90;;;;;;5016866;28;20053;-79
2023/04/12 09:08:01;;;;;;;7.68;5.05;;;8.80;99.90;;;;;;5016332;28;20049;-79
2023/04/12 09:10:35;;;;;;;8.00;5.43;;;8.80;99.90;;;;;;5016061;28;20052;-79
2023/04/12 09:13:03;;;;;;;7.97;5.35;;;8.80;99.90;;;;;;5016719;28;20477;-79
2023/04/12 09:15:29;;;;;;;7.03;5.18;;;8.80;99.90;;;;;;5016385;28;20049;-78
2023/04/12 09:18:10;;;;;;;8.77;5.75;;;8.70;99.90;;;;;;5032963;28;20052;-78
2023/04/12 09:20:39;;;;;;;9.23;6.78;;;8.80;99.90;;;;;;5032603;28;20041;-79
2023/04/12 09:23:23;;;;;;;9.50;7.45;;;8.80;99.90;;;;;;5032906;28;20072;-79
2023/04/12 09:25:51;;;;;;;8.45;6.82;;;8.80;99.90;;;;;;5016486;28;20049;-78
2023/04/12 09:28:20;;;;;;;9.20;6.70;;;8.80;99.90;;;;;;5032487;28;20101;-78
2023/04/12 09:30:50;;;;;;;8.38;6.78;;;8.80;99.90;;;;;;5032820;28;20057;-78
2023/04/12 09:33:18;;;;;;;10.00;6.90;;;8.90;99.90;;;;;;5032716;28;20184;-79
2023/04/12 09:35:44;;;;;;;9.10;7.05;;;8.90;99.90;;;;;;5016280;28;20092;-79
2023/04/12 09:38:10;;;;;;;9.63;7.07;;;8.90;99.90;;;;;;4999988;28;20077;-79
2023/04/12 09:40:36;;;;;;;8.63;6.55;;;8.90;99.90;;;;;;5032320;28;20048;-78
2023/04/12 09:43:03;;;;;;;9.38;7.20;;;8.80;99.90;;;;;;5032086;28;20088;-79
2023/04/12 09:45:30;;;;;;;8.68;6.90;;;8.80;99.90;;;;;;5032505;28;20046;-79
2023/04/12 09:47:56;;;;;;;9.45;7.35;;;8.80;99.90;;;;;;5016398;28;20068;-79
2023/04/12 09:50:31;;;;;;;10.18;7.70;;;8.80;99.90;;;;;;5032027;28;20390;-79
2023/04/12 09:52:58;;;;;;;12.05;9.30;;;8.80;99.90;;;;;;5016144;28;20052;-79
2023/04/12 09:55:26;;;;;;;10.60;7.60;;;8.80;99.90;;;;;;5032518;28;20136;-79
2023/04/12 09:57:54;;;;;;;9.60;7.85;;;8.80;99.90;;;;;;5048738;28;20065;-79
2023/04/12 10:00:25;;;;;;;9.25;7.30;;;8.90;99.90;;;;;;5015758;28;20045;-79
2023/04/12 10:02:53;;;;;;;11.07;9.13;;;9.00;99.90;;;;;;5032369;28;20056;-79
2023/04/12 10:05:22;;;;;;;10.75;9.65;;;9.10;99.90;;;;;;5049029;28;20292;-79
2023/04/12 10:07:48;;;;;;;11.10;9.90;;;9.20;99.90;;;;;;5033175;28;20421;-79
2023/04/12 10:10:15;;;;;;;8.80;7.88;;;9.40;99.90;;;;;;5053039;28;20050;-79
2023/04/12 10:12:44;;;;;;;9.88;8.27;;;9.50;99.90;;;;;;5036386;28;20106;-79
2023/04/12 10:15:16;;;;;;;9.43;7.82;;;9.70;99.90;;;;;;5036348;28;20065;-79
2023/04/12 10:17:50;;;;;;;9.57;7.93;;;9.80;99.90;;;;;;5036244;28;20513;-79
2023/04/12 10:20:18;;;;;;;8.85;7.43;;;9.80;99.90;;;;;;5035932;28;20042;-80
2023/04/12 10:22:49;;;;;;;8.68;7.40;;;9.90;99.90;;;;;;5019178;28;20049;-79
2023/04/12 10:25:20;;;;;;;9.15;7.30;;;10.00;99.90;;;;;;5036262;28;20493;-79
2023/04/12 10:27:47;;;;;;;10.10;7.10;;;10.00;99.90;;;;;;5036164;28;20053;-80
2023/04/12 10:30:22;;;;;;;9.75;8.02;;;10.10;99.90;;;;;;5036143;28;20045;-80
2023/04/12 10:33:08;;;;;;;9.60;8.60;;;10.30;99.90;;;;;;5036023;28;20393;-80
2023/04/12 10:35:54;;;;;;;9.48;7.55;;;10.60;99.90;;;;;;5018595;28;20425;-80
2023/04/12 10:38:20;;;;;;;8.57;6.35;;;10.70;99.90;;;;;;5035879;28;20045;-80
2023/04/12 10:41:06;;;;;;;8.40;5.40;;;10.80;99.90;;;;;;5035723;28;20069;-80
2023/04/12 10:43:31;;;;;;;7.95;5.15;;;10.80;99.90;;;;;;5035559;28;20045;-80
2023/04/12 10:46:03;;;;;;;8.20;4.82;;;10.90;99.90;;;;;;5035779;28;20072;-80
2023/04/12 10:48:37;;;;;;;9.13;4.93;;;10.90;99.90;;;;;;5035580;28;20397;-80
2023/04/12 10:51:25;;;;;;;8.60;4.90;;;11.00;99.90;;;;;;5035701;28;20064;-80
2023/04/12 10:54:30;;;;;;;7.68;4.03;;;11.00;99.90;;;;;;5035644;28;20497;-79
2023/04/12 10:56:56;;;;;;;10.02;4.78;;;11.10;99.90;;;;;;4955902;29;20507;-80
2023/04/12 10:59:22;;;;;;;8.93;5.50;;;11.30;99.90;;;;;;4955945;29;20054;-80
2023/04/12 11:02:06;;;;;;;10.52;6.07;;;11.60;99.90;;;;;;4983856;28;20166;-81
2023/04/12 11:04:32;;;;;;;11.88;4.90;;;11.80;99.90;;;;;;5018950;28;20171;-80
2023/04/12 11:07:00;;;;;;;9.50;4.63;;;11.90;99.90;;;;;;5035321;28;20488;-80
2023/04/12 11:09:40;;;;;;;10.73;6.20;;;12.00;99.90;;;;;;5018955;28;20088;-80
2023/04/12 11:12:05;;;;;;;12.73;6.20;;;12.20;99.90;;;;;;5018886;28;20041;-81
2023/04/12 11:14:36;;;;;;;11.15;5.43;;;12.20;99.90;;;;;;5035080;28;20230;-79
2023/04/12 11:17:05;;;;;;;9.48;5.80;;;12.40;99.90;;;;;;5035191;28;20054;-80
2023/04/12 11:19:31;;;;;;;10.23;5.72;;;12.60;99.90;;;;;;5034087;28;20049;-79
2023/04/12 11:22:00;;;;;;;9.77;5.25;;;12.80;99.90;;;;;;5018621;28;20057;-79
2023/04/12 11:24:26;;;;;;;9.82;5.25;;;13.00;99.90;;;;;;5018490;28;20382;-79
2023/04/12 11:26:52;;;;;;;10.68;4.80;;;13.10;99.90;;;;;;5018373;28;20136;-79
2023/04/12 11:29:27;;;;;;;10.55;4.10;;;13.20;99.90;;;;;;5051767;28;20055;-79
2023/04/12 11:31:56;;;;;;;11.32;3.63;;;13.20;99.90;;;;;;5001911;28;20397;-79
2023/04/12 11:34:22;;;;;;;10.77;3.45;;;13.20;99.90;;;;;;5035943;28;20041;-79
2023/04/12 11:36:52;;;;;;;10.65;3.40;;;13.10;99.90;;;;;;5034786;28;20186;-79
2023/04/12 11:39:19;;;;;;;10.10;3.35;;;13.10;99.90;;;;;;5034745;28;20508;-79
2023/04/12 11:41:48;;;;;;;14.07;3.67;;;13.20;99.90;;;;;;5051480;28;20072;-79
2023/04/12 11:44:20;;;;;;;11.75;3.33;;;13.40;99.90;;;;;;5034504;28;20045;-79
2023/04/12 11:46:46;;;;;;;;;;;13.50;99.90;;;;;;5018127;28;20076;-79
2023/04/12 11:49:20;;;;;;;11.50;3.03;;;13.60;99.90;;;;;;5034471;28;19925;-79
2023/04/12 11:51:59;;;;;;;11.05;3.10;;;13.60;99.90;;;;;;5050871;28;20053;-79
2023/04/12 11:54:28;;;;;;;8.65;2.65;;;13.60;99.90;;;;;;5034563;28;20048;-79
2023/04/12 11:56:56;;;;;;;9.75;2.78;;;13.50;99.90;;;;;;5051083;28;20057;-79
2023/04/12 11:59:30;;;;;;;11.20;3.10;;;13.60;99.90;;;;;;5035355;28;20060;-80
2023/04/12 12:01:55;;;;;;;10.13;2.58;;;13.70;99.90;;;;;;5034436;28;20107;-79
2023/04/12 12:04:21;;;;;;;9.05;2.80;;;13.80;99.90;;;;;;5050875;28;20486;-80
2023/04/12 12:06:47;;;;;;;9.80;2.50;;;14.00;99.90;;;;;;5034060;28;20057;-80
2023/04/12 12:09:13;;;;;;;12.25;2.92;;;14.30;99.90;;;;;;5050605;28;20053;-81
2023/04/12 12:11:39;;;;;;;10.18;3.08;;;14.60;99.90;;;;;;5050589;28;20052;-78
2023/04/12 12:14:07;;;;;;;9.38;2.85;;;14.80;99.90;;;;;;5034144;28;20129;-81
2023/04/12 12:16:34;;;;;;;11.27;2.70;;;14.90;99.90;;;;;;5018028;28;20057;-81
2023/04/12 12:19:03;;;;;;;10.00;3.03;;;14.90;99.90;;;;;;5001466;28;20049;-80
2023/04/12 12:21:30;;;;;;;11.48;2.92;;;15.10;99.90;;;;;;5050359;28;20057;-80
2023/04/12 12:23:57;;;;;;;10.43;2.60;;;15.10;99.90;;;;;;5033749;28;20057;-80
2023/04/12 12:26:27;;;;;;;12.07;3.00;;;15.10;99.90;;;;;;5001312;28;20053;-80
2023/04/12 12:28:55;;;;;;;13.10;3.17;;;14.90;99.90;;;;;;5033396;28;20053;-80
2023/04/12 12:31:23;;;;;;;11.90;2.75;;;14.90;99.90;;;;;;5032580;28;20382;-81
2023/04/12 12:33:57;;;;;;;11.35;2.90;;;15.20;99.90;;;;;;5033510;28;20057;-81
2023/04/12 12:36:34;;;;;;;10.68;2.60;;;15.40;99.90;;;;;;5033795;28;20060;-81
2023/04/12 12:39:11;;;;;;;12.18;2.75;;;15.50;99.90;;;;;;5033614;28;20048;-80
2023/04/12 12:41:38;;;;;;;12.10;2.60;;;15.60;99.90;;;;;;5033415;28;20091;-80
2023/04/12 12:44:04;;;;;;;10.25;2.55;;;15.60;99.90;;;;;;5033555;28;20481;-77
2023/04/12 12:46:30;;;;;;;13.77;3.10;;;15.30;99.90;;;;;;5017215;28;20049;-77
2023/04/12 12:48:56;;;;;;;12.10;2.60;;;15.10;99.90;;;;;;5033517;28;20056;-77
2023/04/12 12:51:22;;;;;;;8.95;2.53;;;14.90;99.90;;;;;;5016519;28;20140;-77
2023/04/12 12:53:47;;;;;;;9.63;2.72;;;14.90;99.90;;;;;;5033412;28;20056;-78
2023/04/12 12:56:14;;;;;;;9.68;2.53;;;14.80;99.90;;;;;;5034336;28;20045;-78
2023/04/12 12:58:41;;;;;;;9.73;2.63;;;14.70;99.90;;;;;;5033296;28;20489;-78
2023/04/12 13:01:07;;;;;;;12.55;2.80;;;14.40;99.90;;;;;;5033197;28;20053;-78